Time;durP1;ratioP1;P1;durP2;ratioP2;P2;SDS_P1;SDS_P2;PMS_P1;PMS_P2;Temp;Humidity;BMP_temperature;BMP_pressure;BME280_temperature;BME280_humidity;BME280_pressure;Samples;Min_cycle;Max_cycle;Signal;HPM_P1;HPM_P2
2022/04/29 00:02:13;;;;;;;12.75;5.95;;;;;;;6.93;51.48;102193.56;5032670;28;20056;-57
2022/04/29 00:04:40;;;;;;;11.85;6.05;;;;;;;6.90;51.39;102188.34;5032704;28;20053;-56
2022/04/29 00:07:08;;;;;;;11.20;5.78;;;;;;;6.88;51.25;102185.72;5047983;28;20057;-56
2022/04/29 00:09:35;;;;;;;11.88;5.32;;;;;;;6.90;50.93;102191.78;5052860;28;20063;-57
2022/04/29 00:12:03;;;;;;;10.07;6.25;;;;;;;6.94;50.54;102191.03;5052732;28;20041;-54
2022/04/29 00:14:30;;;;;;;11.55;5.68;;;;;;;6.96;50.02;102189.38;5052696;28;20045;-56
2022/04/29 00:16:57;;;;;;;13.68;5.35;;;;;;;6.99;49.67;102190.31;5052761;28;20045;-56
2022/04/29 00:19:25;;;;;;;10.13;5.55;;;;;;;6.99;49.14;102182.56;5052691;28;20049;-55
2022/04/29 00:21:51;;;;;;;11.90;5.55;;;;;;;6.97;49.15;102185.97;5052371;28;20053;-57
2022/04/29 00:24:18;;;;;;;10.15;5.53;;;;;;;6.96;49.15;102186.81;5052484;28;20139;-57
2022/04/29 00:26:44;;;;;;;11.90;5.65;;;;;;;6.99;49.20;102185.16;5052740;28;20044;-57
2022/04/29 00:29:10;;;;;;;9.07;4.90;;;;;;;7.03;48.85;102189.56;5052422;28;20049;-56
2022/04/29 00:31:39;;;;;;;11.10;4.88;;;;;;;7.04;48.69;102183.56;5051674;28;20390;-57
2022/04/29 00:34:07;;;;;;;12.80;4.95;;;;;;;7.04;48.44;102181.00;5058767;28;20049;-57
2022/04/29 00:36:34;;;;;;;9.38;4.85;;;;;;;7.05;48.71;102183.63;5072026;28;20056;-55
2022/04/29 00:39:01;;;;;;;7.90;3.05;;;;;;;7.05;47.66;102172.44;5072096;28;20063;-57
2022/04/29 00:41:28;;;;;;;4.88;3.13;;;;;;;7.11;46.78;102175.19;5065200;28;20063;-54
2022/04/29 00:44:02;;;;;;;7.07;3.20;;;;;;;7.19;46.55;102176.28;5056150;28;20045;-57
2022/04/29 00:46:29;;;;;;;7.22;2.83;;;;;;;7.26;46.14;102178.19;5055573;28;20049;-56
2022/04/29 00:48:56;;;;;;;5.68;2.33;;;;;;;7.32;45.61;102178.41;5055677;28;20067;-56
2022/04/29 00:51:22;;;;;;;5.35;2.10;;;;;;;7.38;45.13;102178.56;5055471;28;20055;-57
2022/04/29 00:53:50;;;;;;;3.78;2.20;;;;;;;7.41;44.60;102173.47;5055215;28;20531;-56
2022/04/29 00:56:20;;;;;;;3.92;2.10;;;;;;;7.47;44.21;102163.31;5055409;28;20300;-56
2022/04/29 00:58:51;;;;;;;4.18;1.83;;;;;;;7.54;44.02;102165.22;5055437;28;20087;-55
2022/04/29 01:01:20;;;;;;;3.40;1.98;;;;;;;7.59;43.76;102160.19;5055467;28;20064;-55
2022/04/29 01:03:47;;;;;;;5.13;2.20;;;;;;;7.63;43.46;102164.59;5055077;28;20049;-56
2022/04/29 01:06:13;;;;;;;3.90;2.20;;;;;;;7.68;43.53;102159.56;5063265;28;20052;-55
2022/04/29 01:08:40;;;;;;;4.82;2.28;;;;;;;7.72;43.30;102153.63;5075536;28;20063;-57
2022/04/29 01:11:08;;;;;;;3.42;1.63;;;;;;;7.76;43.20;102155.47;5075432;28;20053;-56
2022/04/29 01:13:35;;;;;;;4.90;1.80;;;;;;;7.77;42.88;102152.91;5075445;28;20377;-55
2022/04/29 01:16:02;;;;;;;3.72;1.88;;;;;;;7.77;42.77;102152.91;5075428;28;20135;-56
2022/04/29 01:18:29;;;;;;;5.10;2.55;;;;;;;7.82;42.92;102155.66;5075639;28;20049;-58
2022/04/29 01:21:03;;;;;;;4.22;1.90;;;;;;;7.87;42.94;102156.63;5075694;28;20107;-57
2022/04/29 01:23:32;;;;;;;6.05;2.28;;;;;;;7.87;42.82;102151.47;5057185;28;20053;-56
2022/04/29 01:25:58;;;;;;;5.85;2.05;;;;;;;7.87;42.98;102152.34;5055214;28;20646;-56
2022/04/29 01:28:26;;;;;;;3.97;1.70;;;;;;;7.92;43.11;102149.88;5055031;28;20365;-57
2022/04/29 01:30:54;;;;;;;5.90;2.00;;;;;;;7.92;43.19;102142.13;5066367;28;20064;-56
2022/04/29 01:33:22;;;;;;;9.30;4.00;;;;;;;7.89;43.94;102136.91;5075118;28;20060;-56
2022/04/29 01:35:48;;;;;;;9.65;4.43;;;;;;;7.81;44.47;102143.59;5075411;28;20067;-57
2022/04/29 01:38:15;;;;;;;8.70;3.95;;;;;;;7.72;44.77;102139.03;5075260;28;20048;-56
2022/04/29 01:40:42;;;;;;;10.48;3.90;;;;;;;7.68;44.91;102131.16;5073186;28;20052;-57
2022/04/29 01:43:09;;;;;;;10.38;4.75;;;;;;;7.63;45.52;102132.75;5055067;28;20041;-57
2022/04/29 01:45:36;;;;;;;18.10;7.63;;;;;;;7.55;45.81;102136.03;5055117;28;20056;-57
2022/04/29 01:48:03;;;;;;;17.13;7.45;;;;;;;7.48;45.95;102135.81;5054914;28;20056;-57
2022/04/29 01:50:30;;;;;;;14.25;7.30;;;;;;;7.41;46.71;102136.50;5055045;28;20048;-57
2022/04/29 01:52:57;;;;;;;16.92;9.00;;;;;;;7.34;46.66;102135.44;5072108;28;20074;-56
2022/04/29 01:55:24;;;;;;;15.52;7.10;;;;;;;7.31;46.79;102130.22;5075055;28;20139;-55
2022/04/29 01:57:52;;;;;;;16.15;7.90;;;;;;;7.27;47.01;102123.19;5075058;28;20052;-57
2022/04/29 02:00:19;;;;;;;12.02;6.50;;;;;;;7.23;47.28;102127.41;5074929;28;20064;-57
2022/04/29 02:02:45;;;;;;;13.27;6.05;;;;;;;7.25;47.26;102130.00;5074299;28;20450;-56
2022/04/29 02:05:12;;;;;;;10.50;4.38;;;;;;;7.28;47.46;102124.94;5074764;28;20099;-57
2022/04/29 02:07:38;;;;;;;6.68;2.95;;;;;;;7.33;47.38;102123.38;5074785;28;20084;-57
2022/04/29 02:10:06;;;;;;;6.20;2.88;;;;;;;7.39;47.40;102122.69;5070777;28;20358;-57
2022/04/29 02:12:34;;;;;;;5.22;2.22;;;;;;;7.44;47.41;102127.13;5054596;28;20136;-55
2022/04/29 02:15:02;;;;;;;7.78;2.22;;;;;;;7.47;47.43;102116.00;5054749;28;20057;-56
2022/04/29 02:17:29;;;;;;;4.47;2.15;;;;;;;7.45;47.50;102123.72;5054349;28;20064;-55
2022/04/29 02:19:55;;;;;;;3.60;2.00;;;;;;;7.46;47.81;102119.44;5054468;28;20132;-56
2022/04/29 02:22:22;;;;;;;5.32;2.25;;;;;;;7.46;47.73;102112.56;5045195;28;20372;-57
2022/04/29 02:24:48;;;;;;;5.50;2.22;;;;;;;7.47;47.84;102124.63;5034219;28;20505;-57
2022/04/29 02:27:15;;;;;;;3.17;1.90;;;;;;;7.51;48.20;102112.69;5034045;28;20064;-55
2022/04/29 02:29:41;;;;;;;7.00;2.30;;;;;;;7.53;48.02;102116.16;5034465;28;20064;-56
2022/04/29 02:32:09;;;;;;;9.95;2.00;;;;;;;7.52;48.47;102110.13;5034206;28;20053;-57
2022/04/29 02:34:37;;;;;;;4.38;2.20;;;;;;;7.53;48.29;102117.03;5046180;28;20045;-57
2022/04/29 02:37:04;;;;;;;4.00;2.00;;;;;;;7.54;48.30;102108.47;5054170;28;20045;-56
2022/04/29 02:39:31;;;;;;;4.15;2.00;;;;;;;7.59;48.32;102114.63;5054009;28;20053;-56
2022/04/29 02:41:57;;;;;;;5.13;2.03;;;;;;;7.62;48.54;102115.53;5037580;28;20056;-54
2022/04/29 02:44:24;;;;;;;4.80;2.05;;;;;;;7.63;48.77;102113.00;5033828;28;20075;-57
2022/04/29 02:47:09;;;;;;;5.35;2.20;;;;;;;7.65;48.79;102111.31;5034015;28;20054;-55
2022/04/29 02:49:41;;;;;;;6.13;2.00;;;;;;;7.65;49.02;102107.88;5034047;28;20057;-55
2022/04/29 02:52:10;;;;;;;5.93;2.22;;;;;;;7.64;49.22;102108.69;5033867;28;20064;-56
2022/04/29 02:54:36;;;;;;;5.30;2.20;;;;;;;7.63;49.23;102112.13;5033568;28;20076;-56
2022/04/29 02:57:05;;;;;;;4.38;2.00;;;;;;;7.65;49.10;102106.16;5033313;28;20386;-57
2022/04/29 02:59:31;;;;;;;4.60;2.20;;;;;;;7.67;49.39;102103.63;5033344;28;20053;-57
2022/04/29 03:01:58;;;;;;;4.53;2.38;;;;;;;7.67;49.61;102101.03;5033324;28;20053;-56
2022/04/29 03:04:25;;;;;;;6.25;2.15;;;;;;;7.65;49.35;102106.16;5040950;28;20140;-57
2022/04/29 03:06:53;;;;;;;3.50;1.70;;;;;;;7.65;49.52;102094.97;5044707;28;20056;-57
2022/04/29 03:09:20;;;;;;;3.90;2.30;;;;;;;7.65;50.04;102100.13;5053990;28;20057;-55
2022/04/29 03:11:48;;;;;;;4.55;2.03;;;;;;;7.62;49.98;102093.19;5053910;28;20071;-57
2022/04/29 03:14:14;;;;;;;3.58;2.00;;;;;;;7.64;49.96;102093.22;5053704;28;20138;-57
2022/04/29 03:16:41;;;;;;;3.67;2.00;;;;;;;7.64;50.08;102093.22;5053244;28;20057;-54
2022/04/29 03:19:08;;;;;;;4.78;2.20;;;;;;;7.66;50.30;102096.69;5053730;28;20052;-55
2022/04/29 03:21:35;;;;;;;4.63;2.20;;;;;;;7.73;50.57;102096.91;5039678;28;20088;-57
2022/04/29 03:24:03;;;;;;;5.05;2.13;;;;;;;7.80;50.55;102095.34;5053071;28;20053;-56
2022/04/29 03:26:30;;;;;;;4.57;1.80;;;;;;;7.87;50.48;102098.13;5053291;28;20111;-57
2022/04/29 03:28:57;;;;;;;4.85;1.90;;;;;;;7.93;50.28;102101.69;5053387;28;20060;-57
2022/04/29 03:31:23;;;;;;;4.13;2.13;;;;;;;7.97;50.75;102104.38;5053060;28;20363;-56
2022/04/29 03:33:49;;;;;;;4.18;2.25;;;;;;;8.02;50.72;102101.91;5053270;28;20470;-54
2022/04/29 03:36:16;;;;;;;5.95;2.40;;;;;;;8.05;50.86;102105.44;5053424;28;20052;-57
2022/04/29 03:38:42;;;;;;;6.40;2.72;;;;;;;8.08;51.23;102107.22;5053311;28;20055;-57
2022/04/29 03:41:12;;;;;;;8.07;3.15;;;;;;;8.11;51.35;102102.13;5053363;28;20067;-54
2022/04/29 03:43:38;;;;;;;8.05;3.28;;;;;;;8.13;51.76;102100.44;5053390;28;20084;-54
2022/04/29 03:46:06;;;;;;;8.88;2.53;;;;;;;8.15;51.77;102097.06;5053021;28;20063;-57
2022/04/29 03:49:35;;;;;;;10.73;3.00;;;;;;;8.20;51.96;102102.34;5053132;28;20091;-57
2022/04/29 03:51:20;;;;;;;9.65;2.83;;;;;;;8.27;51.73;102098.19;5052746;28;20094;-57
2022/04/29 03:53:47;;;;;;;9.07;3.45;;;;;;;8.33;51.96;102095.75;5053176;28;20044;-57
2022/04/29 03:56:15;;;;;;;7.18;2.83;;;;;;;8.40;51.93;102095.09;5053214;28;20080;-54
2022/04/29 03:58:42;;;;;;;5.85;3.40;;;;;;;8.45;51.99;102094.34;5053071;28;20140;-57
2022/04/29 04:01:08;;;;;;;8.25;3.08;;;;;;;8.50;52.48;102097.03;5052730;28;20390;-58
2022/04/29 04:03:35;;;;;;;8.02;3.95;;;;;;;8.59;52.37;102102.41;5052866;28;20045;-58
2022/04/29 04:08:46;;;;;;;9.80;4.30;;;;;;;8.78;52.75;102104.53;5072875;28;20165;-55
2022/04/29 04:11:12;;;;;;;9.25;4.55;;;;;;;8.89;52.74;102107.34;5072650;28;20488;-57
2022/04/29 04:13:40;;;;;;;12.07;5.15;;;;;;;9.00;52.43;102105.84;5072900;28;20056;-58
2022/04/29 04:16:06;;;;;;;14.13;5.45;;;;;;;9.14;52.01;102103.53;5073800;28;20385;-57
2022/04/29 04:18:33;;;;;;;12.40;5.78;;;;;;;9.31;51.88;102109.88;5074180;28;20059;-58
2022/04/29 04:20:59;;;;;;;10.07;5.43;;;;;;;9.48;52.33;102105.03;5056758;28;20053;-57
2022/04/29 04:23:26;;;;;;;16.00;5.40;;;;;;;9.63;52.06;102099.25;5056288;28;20053;-58
2022/04/29 04:25:56;;;;;;;10.25;5.32;;;;;;;9.77;51.98;102105.53;5056900;28;20057;-57
2022/04/29 04:28:23;;;;;;;10.13;4.95;;;;;;;9.94;51.97;102101.53;5056023;28;20437;-58
2022/04/29 04:30:51;;;;;;;11.68;6.00;;;;;;;10.10;51.34;102102.63;5055996;28;20520;-58
2022/04/29 04:33:17;;;;;;;10.07;5.75;;;;;;;10.26;51.77;102108.94;5056637;28;20059;-55
2022/04/29 04:35:44;;;;;;;10.52;5.50;;;;;;;10.40;51.50;102107.41;5056454;28;20060;-56
2022/04/29 04:38:10;;;;;;;11.80;5.38;;;;;;;10.55;51.76;102105.06;5056486;28;20053;-58
2022/04/29 04:40:37;;;;;;;13.52;5.50;;;;;;;10.70;50.48;102107.84;5056433;28;20052;-58
2022/04/29 04:43:03;;;;;;;14.25;5.78;;;;;;;10.85;50.61;102111.47;5056515;28;20052;-58
2022/04/29 04:45:30;;;;;;;12.55;5.55;;;;;;;10.97;50.17;102106.47;5056423;28;20060;-57
2022/04/29 04:47:58;;;;;;;13.52;5.97;;;;;;;11.10;50.04;102107.47;5056424;28;20096;-58
2022/04/29 04:50:24;;;;;;;10.40;5.63;;;;;;;11.25;50.26;102099.84;5056078;28;20072;-57
2022/04/29 04:52:51;;;;;;;15.27;6.10;;;;;;;11.38;49.84;102105.19;5056384;28;20049;-57
2022/04/29 04:55:17;;;;;;;20.63;6.13;;;;;;;11.56;49.94;102111.44;5056348;28;20048;-55
2022/04/29 04:57:44;;;;;;;14.38;6.47;;;;;;;11.72;49.40;102099.44;5056378;28;20076;-56
2022/04/29 05:00:12;;;;;;;11.60;5.13;;;;;;;11.89;49.20;102098.75;5056047;28;20049;-58
2022/04/29 05:02:40;;;;;;;11.90;5.63;;;;;;;12.07;49.22;102102.38;5055952;28;20056;-55
2022/04/29 05:05:08;;;;;;;10.52;5.70;;;;;;;12.25;49.09;102102.50;5056161;28;20057;-56
2022/04/29 05:07:34;;;;;;;17.48;6.15;;;;;;;12.43;48.64;102102.59;5074899;28;20063;-56
2022/04/29 05:10:01;;;;;;;22.02;6.00;;;;;;;12.59;48.57;102107.06;5075835;28;20040;-57
2022/04/29 05:12:27;;;;;;;13.48;5.97;;;;;;;12.76;48.17;102116.66;5075731;28;20377;-58
2022/04/29 05:14:54;;;;;;;13.93;5.63;;;;;;;12.93;48.06;102109.78;5075563;28;20052;-58
2022/04/29 05:17:20;;;;;;;24.15;6.13;;;;;;;13.07;47.63;102108.13;5075667;28;20642;-60
2022/04/29 05:19:47;;;;;;;13.88;5.20;;;;;;;13.23;47.26;102114.28;5076076;28;20048;-61
2022/04/29 05:22:14;;;;;;;11.70;6.70;;;;;;;13.42;47.13;102112.56;5067338;28;20477;-60
2022/04/29 05:24:41;;;;;;;13.70;6.10;;;;;;;13.61;47.00;102110.88;5054470;28;20064;-59
2022/04/29 05:27:07;;;;;;;14.93;5.45;;;;;;;13.78;46.77;102115.25;5054264;28;20063;-61
2022/04/29 05:29:34;;;;;;;9.48;5.13;;;;;;;13.92;46.32;102116.97;5054268;28;20390;-61
2022/04/29 05:32:00;;;;;;;13.52;5.53;;;;;;;14.05;46.10;102109.16;5054372;28;20064;-61
2022/04/29 05:34:27;;;;;;;14.30;5.63;;;;;;;14.19;46.02;102112.63;5054425;28;20048;-61
2022/04/29 05:36:53;;;;;;;21.25;6.55;;;;;;;14.34;45.72;102111.72;5054142;28;20482;-61
2022/04/29 05:42:18;;;;;;;10.57;5.57;;;;;;;14.59;45.14;102122.16;5034974;28;20067;-61
2022/04/29 05:44:46;;;;;;;13.23;5.85;;;;;;;14.69;44.82;102118.63;5053854;28;20465;-60
2022/04/29 05:47:13;;;;;;;12.10;5.55;;;;;;;14.79;44.49;102117.72;5062981;28;20053;-60
2022/04/29 05:49:39;;;;;;;12.00;6.13;;;;;;;14.89;44.11;102105.50;5063319;28;20512;-59
2022/04/29 05:52:07;;;;;;;18.85;5.45;;;;;;;14.99;44.23;102122.84;5064824;28;20048;-60
2022/04/29 05:54:36;;;;;;;20.33;6.10;;;;;;;15.09;44.36;102128.06;5062996;28;20390;-59
2022/04/29 05:57:04;;;;;;;18.48;6.20;;;;;;;15.23;44.18;102127.97;5063063;28;20060;-58
2022/04/29 05:59:31;;;;;;;23.13;6.90;;;;;;;15.34;43.56;102123.56;5065638;28;20554;-55
2022/04/29 06:01:59;;;;;;;13.02;5.93;;;;;;;15.47;43.18;102129.56;5058274;28;20072;-55
2022/04/29 06:04:25;;;;;;;15.50;5.95;;;;;;;15.57;42.91;102128.63;5054275;28;20049;-53
2022/04/29 06:06:52;;;;;;;13.50;6.78;;;;;;;15.71;43.28;102131.19;5058534;28;20469;-56
2022/04/29 06:09:18;;;;;;;13.23;5.85;;;;;;;15.83;42.65;102136.31;5084651;28;20048;-55
2022/04/29 06:11:46;;;;;;;18.63;6.50;;;;;;;15.93;42.59;102142.34;5080120;28;20044;-56
2022/04/29 06:14:13;;;;;;;13.88;6.45;;;;;;;16.00;42.43;102144.03;5074511;28;20056;-52
2022/04/29 06:16:39;;;;;;;16.98;6.32;;;;;;;16.10;42.08;102150.91;5077897;28;20059;-54
2022/04/29 06:19:06;;;;;;;14.35;5.90;;;;;;;16.22;42.13;102150.81;5085992;28;20056;-53
2022/04/29 06:21:32;;;;;;;12.67;6.63;;;;;;;16.35;41.63;102155.06;5043657;28;1083109;-53
2022/04/29 06:23:59;;;;;;;17.25;6.25;;;;;;;16.48;41.23;102150.56;5084549;28;20044;-52
2022/04/29 06:26:25;;;;;;;14.30;6.15;;;;;;;16.56;40.87;102153.09;5077749;28;20048;-54
2022/04/29 06:28:53;;;;;;;20.67;7.18;;;;;;;16.66;40.64;102149.56;5088642;28;20079;-52
2022/04/29 06:31:19;;;;;;;19.48;6.97;;;;;;;16.77;40.58;102152.91;5083802;28;20491;-54
2022/04/29 06:33:46;;;;;;;26.23;6.55;;;;;;;16.88;40.36;102148.41;5080483;28;20071;-58
2022/04/29 06:36:12;;;;;;;19.80;7.95;;;;;;;16.98;40.07;102150.03;5064872;28;20056;-53
2022/04/29 06:38:39;;;;;;;13.63;6.15;;;;;;;17.06;39.50;102151.69;5069792;28;20084;-52
2022/04/29 06:41:06;;;;;;;14.70;6.00;;;;;;;17.12;39.54;102154.22;5067099;28;20473;-56
2022/04/29 06:43:32;;;;;;;12.98;6.20;;;;;;;17.24;39.40;102161.94;5061743;28;20045;-54
2022/04/29 06:46:00;;;;;;;13.60;6.72;;;;;;;17.31;39.31;102160.97;5067636;28;20059;-53
2022/04/29 06:48:27;;;;;;;21.40;6.45;;;;;;;17.43;38.95;102163.41;5064968;28;20157;-55
2022/04/29 06:50:54;;;;;;;16.25;6.25;;;;;;;17.53;38.27;102159.78;5065435;28;20044;-53
2022/04/29 06:53:20;;;;;;;13.77;5.70;;;;;;;17.59;38.22;102164.94;5064187;28;20478;-56
2022/04/29 06:55:47;;;;;;;18.70;6.18;;;;;;;17.69;38.20;102170.06;5080151;28;20059;-55
2022/04/29 06:58:14;;;;;;;15.60;5.72;;;;;;;17.80;38.11;102173.41;5075778;28;20645;-57
2022/04/29 07:00:42;;;;;;;15.02;5.57;;;;;;;17.86;37.96;102165.44;5089609;28;20048;-54
2022/04/29 07:03:10;;;;;;;46.58;7.10;;;;;;;17.98;37.60;102162.63;5078188;28;20060;-56
2022/04/29 07:05:37;;;;;;;14.23;5.30;;;;;;;18.12;37.48;102165.88;5075915;28;20055;-57
2022/04/29 07:08:05;;;;;;;15.43;4.32;;;;;;;18.33;37.21;102171.66;5079101;28;20064;-57
2022/04/29 07:10:31;;;;;;;9.30;4.25;;;;;;;18.51;36.92;102171.31;5075003;28;20048;-54
2022/04/29 07:12:58;;;;;;;9.32;4.20;;;;;;;18.70;36.71;102164.00;5070080;28;20056;-57
2022/04/29 07:15:24;;;;;;;7.72;3.03;;;;;;;18.87;36.14;102167.19;5066272;28;20422;-56
2022/04/29 07:17:50;;;;;;;11.32;3.97;;;;;;;19.06;35.62;102172.91;5082373;28;20048;-57
2022/04/29 07:20:19;;;;;;;11.88;3.30;;;;;;;19.22;35.07;102171.69;5076647;28;20053;-58
2022/04/29 07:22:46;;;;;;;17.48;4.30;;;;;;;19.30;34.77;102177.66;5087975;28;20067;-53
2022/04/29 07:25:14;;;;;;;15.98;4.47;;;;;;;19.38;34.71;102181.00;5081646;28;20047;-54
2022/04/29 07:27:41;;;;;;;10.48;3.88;;;;;;;19.49;34.47;102179.00;5080139;28;20055;-57
2022/04/29 07:30:10;;;;;;;10.65;3.67;;;;;;;19.57;34.25;102177.97;5089127;28;20051;-54
2022/04/29 07:32:36;;;;;;;15.77;3.95;;;;;;;19.61;34.17;102177.00;5059903;28;20048;-56
2022/04/29 07:43:18;;;;;;;9.07;4.18;;;;;;;20.20;33.74;102169.44;5082412;28;20089;-53
2022/04/29 07:45:45;;;;;;;9.52;3.53;;;;;;;20.39;33.33;102170.69;5071107;28;20041;-54
2022/04/29 07:48:11;;;;;;;7.13;3.42;;;;;;;20.45;33.22;102170.56;5075061;28;20444;-55
2022/04/29 07:50:39;;;;;;;6.22;2.95;;;;;;;20.56;32.95;102170.28;5088706;28;20067;-56
2022/04/29 07:53:08;;;;;;;9.15;2.90;;;;;;;20.69;32.59;102176.94;5080659;28;20388;-58
2022/04/29 07:55:35;;;;;;;7.57;2.88;;;;;;;20.76;32.10;102173.22;5073502;28;20041;-58
2022/04/29 07:58:03;;;;;;;17.15;2.72;;;;;;;20.82;31.86;102164.31;5085813;28;20284;-56
2022/04/29 08:00:31;;;;;;;15.25;3.85;;;;;;;20.84;31.74;102165.13;5076105;28;20052;-56
2022/04/29 08:02:57;;;;;;;7.22;1.90;;;;;;;20.87;31.39;102165.03;5086207;28;20106;-58
2022/04/29 08:05:24;;;;;;;8.65;2.17;;;;;;;20.79;31.64;102166.09;5073424;28;20068;-56
2022/04/29 08:07:50;;;;;;;19.50;2.92;;;;;;;20.74;31.24;102160.09;5072733;28;20056;-57
2022/04/29 08:10:18;;;;;;;9.80;2.58;;;;;;;20.76;31.05;102157.41;5078984;28;20074;-55
2022/04/29 08:12:44;;;;;;;8.50;2.10;;;;;;;20.78;31.03;102161.72;5065700;28;20059;-57
2022/04/29 08:15:11;;;;;;;8.70;2.50;;;;;;;20.93;30.54;102159.59;5083924;28;20056;-57
2022/04/29 08:17:39;;;;;;;6.93;2.63;;;;;;;21.07;30.31;102158.28;5084254;28;20063;-58
2022/04/29 08:20:07;;;;;;;9.30;2.00;;;;;;;21.27;30.17;102154.19;5066350;28;20057;-58
2022/04/29 08:22:33;;;;;;;10.30;3.05;;;;;;;21.34;30.04;102151.34;5088696;28;20056;-58
2022/04/29 08:25:00;;;;;;;5.88;1.85;;;;;;;21.36;29.66;102152.16;5079387;28;20040;-58
2022/04/29 08:27:28;;;;;;;7.68;1.80;;;;;;;21.41;29.54;102150.25;5081675;28;20123;-58
2022/04/29 08:29:56;;;;;;;7.68;1.95;;;;;;;21.53;29.63;102156.03;5069430;28;20065;-58
2022/04/29 08:32:22;;;;;;;5.85;1.75;;;;;;;21.65;29.63;102153.88;5078981;28;20063;-58
2022/04/29 08:34:49;;;;;;;7.20;2.50;;;;;;;21.76;29.07;102155.31;5086798;28;20049;-55
2022/04/29 08:37:15;;;;;;;8.75;2.40;;;;;;;21.79;28.85;102148.16;5081591;28;20052;-58
2022/04/29 08:39:42;;;;;;;11.88;3.10;;;;;;;21.87;28.86;102151.44;5088991;28;20056;-58
2022/04/29 08:42:10;;;;;;;6.20;2.55;;;;;;;21.91;28.74;102155.69;5055903;28;20510;-58
2022/04/29 08:44:41;;;;;;;8.75;2.50;;;;;;;21.91;28.39;102142.50;5059625;28;20169;-58
2022/04/29 08:47:08;;;;;;;12.13;2.83;;;;;;;21.90;28.39;102140.75;5075695;28;20736;-57
2022/04/29 08:49:36;;;;;;;5.50;2.05;;;;;;;21.96;28.60;102145.84;5071449;28;20135;-58
2022/04/29 08:52:03;;;;;;;9.80;4.32;;;;;;;22.06;29.56;102146.41;5087977;28;20491;-58
2022/04/29 09:00:04;;;;;;;9.02;3.70;;;;;;;22.13;29.16;102141.78;5076881;28;20075;-58
2022/04/29 09:02:39;;;;;;;8.45;3.80;;;;;;;22.09;29.04;102141.03;5090656;28;20040;-57
2022/04/29 09:05:08;;;;;;;10.93;4.32;;;;;;;22.11;29.26;102133.06;5070215;28;20055;-57
2022/04/29 09:07:55;;;;;;;7.15;3.30;;;;;;;22.22;28.50;102139.69;5064450;28;20052;-58
2022/04/29 09:10:22;;;;;;;9.70;3.78;;;;;;;22.23;29.10;102140.56;5090518;28;20086;-57
2022/04/29 09:12:48;;;;;;;12.05;4.63;;;;;;;22.08;28.87;102139.31;5080566;28;20052;-55
2022/04/29 09:15:18;;;;;;;14.63;4.15;;;;;;;21.89;28.89;102139.03;5081098;28;20072;-55
2022/04/29 09:17:45;;;;;;;12.95;3.95;;;;;;;21.77;29.12;102131.50;5088549;28;20067;-54
2022/04/29 09:20:16;;;;;;;18.70;3.95;;;;;;;21.68;29.17;102135.31;5068220;28;20107;-59
2022/04/29 09:22:47;;;;;;;7.88;3.20;;;;;;;21.64;29.46;102133.69;5064050;28;20052;-55
2022/04/29 09:25:14;;;;;;;7.22;2.53;;;;;;;21.59;29.14;102138.25;5084653;28;20087;-56
2022/04/29 09:27:57;;;;;;;10.43;4.20;;;;;;;21.48;28.74;102128.94;5080466;28;20052;-55
2022/04/29 09:30:37;;;;;;;9.18;3.05;;;;;;;21.18;28.41;102134.22;5078848;28;20071;-58
2022/04/29 09:33:04;;;;;;;6.13;2.80;;;;;;;20.90;28.98;102131.53;5076216;28;20503;-53
2022/04/29 09:35:38;;;;;;;5.68;2.17;;;;;;;20.76;29.33;102134.56;5080085;28;20491;-55
2022/04/29 09:40:50;;;;;;;4.47;1.87;;;;;;;20.77;29.06;102133.66;5063133;28;20062;-56
2022/04/29 09:43:16;;;;;;;12.68;2.72;;;;;;;20.74;29.65;102131.09;5084103;28;20293;-57
2022/04/29 09:45:44;;;;;;;10.77;3.38;;;;;;;20.70;30.46;102132.09;5081816;28;20071;-57
2022/04/29 09:48:11;;;;;;;10.77;3.03;;;;;;;20.42;30.45;102133.78;5091145;28;20465;-57
2022/04/29 09:50:48;;;;;;;7.40;2.08;;;;;;;20.31;29.83;102138.44;5078414;28;20055;-58
2022/04/29 09:53:20;;;;;;;4.22;2.08;;;;;;;20.15;31.01;102138.81;5085844;28;20063;-59
2022/04/29 09:56:06;;;;;;;11.40;2.47;;;;;;;20.11;30.99;102137.19;5087645;28;20086;-58
2022/04/29 09:58:33;;;;;;;5.63;1.92;;;;;;;20.09;30.92;102135.50;5077438;28;20719;-57
2022/04/29 10:01:04;;;;;;;6.03;2.10;;;;;;;20.03;30.98;102133.88;5087736;28;20063;-58
2022/04/29 10:03:30;;;;;;;6.10;2.42;;;;;;;19.96;31.10;102140.19;5075063;28;20114;-57
2022/04/29 10:06:00;;;;;;;3.65;1.75;;;;;;;19.77;31.04;102145.06;5073939;28;20087;-56
2022/04/29 10:08:27;;;;;;;4.93;1.70;;;;;;;19.51;31.45;102143.00;5063497;28;20080;-56
2022/04/29 10:10:55;;;;;;;3.88;1.85;;;;;;;19.37;31.82;102142.44;5087834;28;20044;-55
2022/04/29 10:13:24;;;;;;;6.20;2.13;;;;;;;19.22;32.00;102148.03;5080771;28;20056;-55
2022/04/29 10:15:53;;;;;;;7.75;2.88;;;;;;;19.08;32.55;102150.09;5080485;28;20111;-57
2022/04/29 10:21:16;;;;;;;8.85;3.28;;;;;;;18.27;33.74;102149.88;5057128;28;20059;-58
2022/04/29 10:23:48;;;;;;;12.05;3.70;;;;;;;18.03;34.02;102166.03;5069581;28;20053;-57
2022/04/29 10:26:15;;;;;;;7.53;3.28;;;;;;;17.73;34.68;102153.41;5082469;28;20049;-57
2022/04/29 10:28:42;;;;;;;9.90;4.10;;;;;;;17.61;35.20;102152.66;5089791;28;20048;-57
2022/04/29 10:31:09;;;;;;;10.35;4.55;;;;;;;17.45;35.98;102150.28;5066136;28;20462;-58
2022/04/29 10:33:37;;;;;;;13.63;5.00;;;;;;;17.44;36.84;102170.41;5078209;28;20044;-58
2022/04/29 10:36:08;;;;;;;13.25;5.60;;;;;;;17.12;37.94;102157.72;5078347;28;20051;-58
2022/04/29 10:38:37;;;;;;;15.65;5.75;;;;;;;16.93;38.39;102164.94;5090640;28;20080;-57
2022/04/29 10:41:18;;;;;;;13.75;5.38;;;;;;;16.73;39.50;102174.78;5067394;28;20057;-58
2022/04/29 10:44:03;;;;;;;15.80;6.45;;;;;;;16.54;40.13;102178.41;5086654;28;20794;-56
2022/04/29 10:46:35;;;;;;;14.75;7.22;;;;;;;16.14;40.97;102173.56;5077112;28;20654;-54
2022/04/29 10:49:22;;;;;;;12.70;6.63;;;;;;;15.99;42.42;102176.28;5086427;28;20139;-56
2022/04/29 10:51:49;;;;;;;8.30;4.88;;;;;;;15.95;41.88;102169.34;5087119;28;20067;-56
2022/04/29 10:54:16;;;;;;;10.90;5.45;;;;;;;16.03;42.05;102184.09;5076684;28;20362;-56
2022/04/29 10:56:43;;;;;;;10.40;5.50;;;;;;;16.12;41.91;102171.81;5089342;28;20150;-57
2022/04/29 10:59:15;;;;;;;7.80;4.18;;;;;;;16.22;41.51;102173.50;5071462;28;20052;-56
2022/04/29 11:01:42;;;;;;;14.30;5.10;;;;;;;16.27;41.67;102180.44;5076587;28;20056;-55
2022/04/29 11:04:46;;;;;;;9.55;4.88;;;;;;;16.41;42.67;102178.53;5072123;28;20053;-57
2022/04/29 11:07:35;;;;;;;8.25;4.13;;;;;;;16.61;42.09;102180.09;5064293;28;20060;-53
2022/04/29 11:10:03;;;;;;;9.73;4.07;;;;;;;16.84;41.22;102172.91;5084402;28;20048;-57
2022/04/29 11:12:30;;;;;;;9.88;5.00;;;;;;;17.09;41.29;102177.84;5076807;28;20055;-57
2022/04/29 11:15:09;;;;;;;10.00;6.20;;;;;;;17.16;41.91;102175.13;5081494;28;20094;-54
2022/04/29 11:17:36;;;;;;;14.10;6.70;;;;;;;17.07;41.86;102190.09;5081544;28;20080;-56
2022/04/29 11:20:18;;;;;;;13.25;6.68;;;;;;;17.05;42.59;102192.72;5079092;28;20087;-59
2022/04/29 11:25:53;;;;;;;16.20;6.70;;;;;;;17.15;42.38;102193.47;5079772;28;20075;-57
2022/04/29 11:28:21;;;;;;;13.40;5.97;;;;;;;17.14;42.37;102187.38;5056555;28;20124;-52
2022/04/29 11:30:49;;;;;;;31.58;7.65;;;;;;;17.11;42.59;102184.78;5064110;28;20055;-52
2022/04/29 11:33:21;;;;;;;10.88;5.78;;;;;;;17.07;42.49;102195.34;5062121;28;20063;-54
2022/04/29 11:35:51;;;;;;;11.88;6.40;;;;;;;17.07;43.99;102174.38;5059344;28;20053;-55
2022/04/29 11:38:18;;;;;;;13.85;5.55;;;;;;;17.02;43.82;102190.16;5065661;28;20048;-52
2022/04/29 11:40:45;;;;;;;12.98;6.57;;;;;;;16.98;43.83;102175.34;5059904;28;20881;-53
2022/04/29 11:43:11;;;;;;;10.18;5.30;;;;;;;16.98;44.19;102186.69;5060991;28;20493;-52
2022/04/29 11:45:40;;;;;;;12.25;5.70;;;;;;;17.04;43.79;102180.53;5060771;28;20069;-56
2022/04/29 11:48:10;;;;;;;9.65;5.05;;;;;;;17.06;43.34;102183.13;5069047;28;20052;-55
2022/04/29 11:50:38;;;;;;;10.43;5.60;;;;;;;16.98;43.35;102193.69;5062543;28;20040;-58
2022/04/29 11:53:07;;;;;;;11.32;4.38;;;;;;;16.88;42.75;102182.47;5077901;28;20055;-59
2022/04/29 11:55:34;;;;;;;8.25;3.80;;;;;;;16.83;42.33;102192.13;5084908;28;20044;-58
2022/04/29 11:58:01;;;;;;;12.35;5.13;;;;;;;16.75;42.37;102183.50;5077704;28;20091;-59